createdAt,value
2019-01-08T00:00:44.641Z,87.98
2019-01-08T00:03:16.074Z,87.37
2019-01-08T00:05:47.528Z,86.38
2019-01-08T00:08:18.995Z,86.73
2019-01-08T00:10:50.429Z,85.83
2019-01-08T00:13:21.880Z,86.43
2019-01-08T00:15:53.289Z,85.56
2019-01-08T00:18:24.743Z,85.37
2019-01-08T00:20:56.191Z,85.64
2019-01-08T00:23:27.718Z,85.14
2019-01-08T00:25:59.199Z,85.78
2019-01-08T00:28:30.657Z,85.44
2019-01-08T00:31:02.060Z,85.25
2019-01-08T00:33:33.567Z,85.10
2019-01-08T00:36:05.005Z,85.35
2019-01-08T00:38:36.460Z,85.51
2019-01-08T00:41:07.862Z,85.43
2019-01-08T00:43:39.307Z,85.66
2019-01-08T00:46:10.711Z,86.36
2019-01-08T00:48:42.139Z,85.82
2019-01-08T00:51:13.600Z,86.17
2019-01-08T00:53:44.999Z,86.33
2019-01-08T00:56:17.449Z,87.21
2019-01-08T00:58:51.600Z,86.74
2019-01-08T01:01:24.137Z,87.02
2019-01-08T01:03:55.550Z,86.32
2019-01-08T01:06:27.001Z,86.71
2019-01-08T01:08:58.335Z,86.08
2019-01-08T01:11:29.795Z,85.95
2019-01-08T01:14:01.679Z,86.62
2019-01-08T01:16:35.726Z,86.94
2019-01-08T01:19:08.025Z,86.99
2019-01-08T01:21:39.734Z,87.55
2019-01-08T01:24:11.146Z,87.98
2019-01-08T01:26:42.596Z,87.99
2019-01-08T01:29:14.181Z,88.57
2019-01-08T01:31:45.651Z,88.93
2019-01-08T01:34:19.474Z,88.48
2019-01-08T01:36:50.912Z,88.83
2019-01-08T01:39:22.335Z,88.37
2019-01-08T01:41:53.915Z,88.99
2019-01-08T01:44:25.366Z,89.35
2019-01-08T01:46:56.798Z,89.01
2019-01-08T01:49:28.223Z,89.13
2019-01-08T01:51:59.609Z,89.62
2019-01-08T01:54:31.021Z,90.42
2019-01-08T01:57:02.703Z,90.15
2019-01-08T01:59:36.957Z,90.99
2019-01-08T02:02:08.407Z,90.75
2019-01-08T02:04:39.756Z,91.29
2019-01-08T02:07:11.387Z,90.80
2019-01-08T02:09:43.100Z,90.71
2019-01-08T02:12:14.906Z,90.92
2019-01-08T02:14:46.688Z,90.99
2019-01-08T02:17:18.129Z,91.46
2019-01-08T02:19:49.548Z,91.85
2019-01-08T02:22:20.990Z,91.12
2019-01-08T02:24:52.421Z,90.80
2019-01-08T02:27:23.813Z,91.34
2019-01-08T02:29:57.323Z,91.45
2019-01-08T02:32:28.777Z,91.64
2019-01-08T02:35:00.443Z,91.34
2019-01-08T02:37:31.872Z,92.01
2019-01-08T02:40:03.305Z,91.81
2019-01-08T02:42:34.731Z,92.05
2019-01-08T02:45:06.227Z,91.78
2019-01-08T02:47:37.653Z,91.80
2019-01-08T02:50:09.369Z,91.96
2019-01-08T02:52:40.799Z,92.53
2019-01-08T02:55:12.207Z,92.39
2019-01-08T02:57:43.632Z,92.03
2019-01-08T03:00:15.041Z,92.19
2019-01-08T03:02:48.602Z,92.11
2019-01-08T03:05:21.882Z,91.63
2019-01-08T03:07:53.306Z,91.79
2019-01-08T03:10:24.697Z,91.66
2019-01-08T03:12:56.157Z,91.57
2019-01-08T03:15:27.873Z,91.13
2019-01-08T03:17:59.595Z,91.11
2019-01-08T03:20:30.929Z,90.75
2019-01-08T03:23:02.310Z,90.60
2019-01-08T03:25:33.723Z,90.92
2019-01-08T03:28:05.170Z,90.99
2019-01-08T03:30:36.585Z,90.26
2019-01-08T03:33:08.020Z,90.40
2019-01-08T03:35:39.417Z,90.56
2019-01-08T03:38:10.870Z,89.55
2019-01-08T03:40:42.215Z,90.10
2019-01-08T03:43:13.632Z,89.17
2019-01-08T03:45:45.051Z,89.63
2019-01-08T03:48:16.451Z,89.41
2019-01-08T03:50:47.942Z,89.29
2019-01-08T03:53:19.410Z,88.77
2019-01-08T03:55:51.081Z,88.90
2019-01-08T03:58:22.433Z,88.94
2019-01-08T04:00:53.777Z,88.26
2019-01-08T04:03:25.797Z,87.93
2019-01-08T04:05:57.455Z,88.50
2019-01-08T04:08:29.112Z,88.03
2019-01-08T04:11:00.434Z,87.99
2019-01-08T04:13:31.843Z,87.66
2019-01-08T04:16:03.257Z,88.01
2019-01-08T04:18:34.972Z,87.95
2019-01-08T04:21:06.663Z,88.34
2019-01-08T04:23:38.094Z,88.65
2019-01-08T04:26:09.495Z,88.46
2019-01-08T04:28:40.939Z,88.95
2019-01-08T04:31:13.307Z,88.66
2019-01-08T04:33:44.765Z,89.23
2019-01-08T04:36:16.455Z,89.63
2019-01-08T04:38:47.891Z,88.99
2019-01-08T04:41:19.284Z,90.07
2019-01-08T04:43:50.994Z,90.58
2019-01-08T04:46:22.636Z,90.81
2019-01-08T04:48:54.130Z,91.32
2019-01-08T04:51:25.804Z,91.19
2019-01-08T04:53:57.586Z,91.35
2019-01-08T04:56:28.974Z,91.60
2019-01-08T04:59:00.340Z,92.08
2019-01-08T05:01:31.750Z,91.78
2019-01-08T05:04:03.159Z,91.83
2019-01-08T05:06:34.539Z,92.08
2019-01-08T05:09:07.076Z,91.93
2019-01-08T05:11:38.477Z,91.75
2019-01-08T05:14:09.916Z,92.39
2019-01-08T05:16:42.347Z,91.89
2019-01-08T05:19:13.806Z,92.34
2019-01-08T05:21:46.200Z,92.52
2019-01-08T05:24:17.720Z,92.21
2019-01-08T05:26:49.102Z,92.00
2019-01-08T05:29:20.554Z,92.47
2019-01-08T05:31:51.962Z,92.22
2019-01-08T05:34:24.204Z,92.92
2019-01-08T05:36:55.605Z,92.74
2019-01-08T05:39:27.014Z,92.55
2019-01-08T05:41:58.418Z,92.54
2019-01-08T05:44:30.972Z,92.69
2019-01-08T05:47:02.406Z,92.78
2019-01-08T05:49:34.966Z,92.96
2019-01-08T05:52:06.362Z,93.04
2019-01-08T05:54:37.830Z,92.77
2019-01-08T05:57:09.340Z,92.67
2019-01-08T05:59:40.750Z,92.83
2019-01-08T06:02:12.139Z,92.79
2019-01-08T06:04:43.584Z,92.68
2019-01-08T06:07:14.984Z,92.22
2019-01-08T06:09:46.518Z,92.87
2019-01-08T06:12:17.953Z,92.44
2019-01-08T06:14:49.358Z,92.73
2019-01-08T06:17:21.126Z,92.39
2019-01-08T06:19:55.065Z,92.41
2019-01-08T06:22:27.220Z,92.81
2019-01-08T06:25:00.514Z,92.01
2019-01-08T06:27:31.773Z,91.82
2019-01-08T06:30:04.539Z,91.92
2019-01-08T06:32:36.021Z,92.25
2019-01-08T06:35:08.090Z,92.46
2019-01-08T06:37:39.539Z,92.35
2019-01-08T06:40:10.963Z,92.29
2019-01-08T06:42:42.551Z,92.35
2019-01-08T06:45:13.994Z,92.15
2019-01-08T06:47:45.437Z,92.21
2019-01-08T06:50:16.896Z,91.32
2019-01-08T06:52:48.290Z,92.11
2019-01-08T06:55:19.979Z,92.17
2019-01-08T06:57:51.399Z,92.11
2019-01-08T07:00:22.849Z,92.19
2019-01-08T07:02:54.183Z,92.34
2019-01-08T07:05:25.579Z,92.30
2019-01-08T07:07:56.969Z,92.04
2019-01-08T07:10:28.416Z,91.90
2019-01-08T07:12:59.838Z,91.85
2019-01-08T07:15:31.334Z,92.11
2019-01-08T07:18:02.833Z,92.52
2019-01-08T07:20:35.059Z,92.32
2019-01-08T07:23:06.457Z,92.49
2019-01-08T07:25:42.208Z,92.76
2019-01-08T07:28:11.417Z,91.95
2019-01-08T07:30:42.863Z,92.21
2019-01-08T07:33:14.271Z,91.58
2019-01-08T07:35:45.718Z,91.94
2019-01-08T07:38:17.441Z,92.16
2019-01-08T07:40:48.881Z,92.14
2019-01-08T07:43:20.313Z,92.36
2019-01-08T07:45:51.808Z,92.02
2019-01-08T07:48:23.303Z,91.92
2019-01-08T07:50:55.667Z,91.23
2019-01-08T07:53:26.993Z,90.88
2019-01-08T07:55:58.351Z,91.87
2019-01-08T07:58:29.771Z,91.84
2019-01-08T08:01:01.505Z,91.71
2019-01-08T08:03:32.931Z,91.16
2019-01-08T08:06:05.648Z,92.00
2019-01-08T08:08:37.355Z,92.17
2019-01-08T08:11:08.787Z,92.39
2019-01-08T08:13:40.206Z,91.79
2019-01-08T08:16:11.659Z,91.72
2019-01-08T08:18:43.063Z,92.03
2019-01-08T08:21:14.496Z,91.55
2019-01-08T08:23:45.901Z,91.63
2019-01-08T08:26:17.386Z,91.24
2019-01-08T08:28:48.780Z,91.64
2019-01-08T08:31:20.244Z,91.67
2019-01-08T08:33:51.917Z,91.51
2019-01-08T08:36:24.309Z,91.04
2019-01-08T08:38:55.755Z,91.12
2019-01-08T08:41:27.193Z,91.35
2019-01-08T08:44:00.007Z,91.43
2019-01-08T08:46:31.453Z,91.47
2019-01-08T08:49:03.011Z,91.37
2019-01-08T08:51:36.243Z,90.92
2019-01-08T08:54:07.605Z,91.34
2019-01-08T08:56:39.006Z,90.58
2019-01-08T08:59:10.429Z,90.32
2019-01-08T09:01:41.929Z,88.93
2019-01-08T09:04:14.593Z,89.48
2019-01-08T09:06:46.054Z,89.33
2019-01-08T09:09:17.595Z,89.79
2019-01-08T09:11:49.175Z,89.14
2019-01-08T09:14:20.609Z,89.83
2019-01-08T09:16:52.131Z,89.14
2019-01-08T09:19:23.595Z,88.03
2019-01-08T09:21:55.035Z,89.43
2019-01-08T09:24:26.704Z,89.82
2019-01-08T09:26:58.228Z,89.73
2019-01-08T09:29:31.839Z,89.44
2019-01-08T09:32:03.451Z,89.49
2019-01-08T09:34:34.892Z,90.35
2019-01-08T09:37:06.367Z,90.37
2019-01-08T09:39:38.918Z,90.08
2019-01-08T09:42:10.283Z,89.88
2019-01-08T09:44:41.692Z,89.99
2019-01-08T09:47:13.161Z,90.01
2019-01-08T09:49:44.562Z,90.52
2019-01-08T09:52:15.996Z,90.24
2019-01-08T09:54:47.438Z,89.80
2019-01-08T09:57:18.855Z,89.63
2019-01-08T09:59:50.296Z,89.54
2019-01-08T10:02:21.752Z,89.62
2019-01-08T10:04:53.176Z,89.39
2019-01-08T10:07:24.607Z,89.61
2019-01-08T10:09:56.406Z,88.92
2019-01-08T10:12:28.235Z,89.54
2019-01-08T10:14:59.641Z,89.29
2019-01-08T10:17:32.114Z,88.83
2019-01-08T10:20:03.609Z,88.11
2019-01-08T10:22:35.130Z,87.88
2019-01-08T10:25:07.596Z,87.15
2019-01-08T10:27:42.145Z,87.15
2019-01-08T10:30:14.342Z,87.31
2019-01-08T10:32:45.792Z,87.25
2019-01-08T10:35:17.277Z,87.50
2019-01-08T10:37:48.720Z,87.82
2019-01-08T10:40:20.147Z,87.12
2019-01-08T10:42:51.670Z,87.31
2019-01-08T10:45:23.087Z,87.04
2019-01-08T10:47:54.831Z,87.50
2019-01-08T10:50:26.190Z,87.35
2019-01-08T10:52:57.826Z,87.53
2019-01-08T10:55:29.261Z,87.33
2019-01-08T10:58:01.756Z,86.92
2019-01-08T11:00:33.199Z,87.01
2019-01-08T11:03:05.026Z,87.62
2019-01-08T11:05:36.430Z,87.69
2019-01-08T11:08:07.972Z,88.10
2019-01-08T11:10:40.135Z,88.41
2019-01-08T11:13:11.600Z,88.62
2019-01-08T11:15:43.333Z,88.98
2019-01-08T11:18:15.163Z,89.43
2019-01-08T11:20:46.681Z,89.77
2019-01-08T11:23:18.148Z,88.64
2019-01-08T11:25:49.801Z,89.13
2019-01-08T11:28:21.340Z,88.85
2019-01-08T11:30:52.767Z,88.60
2019-01-08T11:33:24.228Z,88.20
2019-01-08T11:35:55.723Z,87.45
2019-01-08T11:38:27.238Z,87.76
2019-01-08T11:40:58.601Z,87.22
2019-01-08T11:43:30.109Z,87.13
2019-01-08T11:46:01.545Z,86.22
2019-01-08T11:48:32.981Z,86.86
2019-01-08T11:51:04.946Z,86.07
2019-01-08T11:53:36.751Z,86.37
2019-01-08T11:56:08.264Z,86.91
2019-01-08T11:58:39.869Z,86.51
2019-01-08T12:01:11.330Z,87.22
2019-01-08T12:03:42.768Z,87.53
2019-01-08T12:06:17.153Z,88.00
2019-01-08T12:08:48.635Z,87.62
2019-01-08T12:11:22.370Z,87.92
2019-01-08T12:13:54.156Z,85.87
2019-01-08T12:16:25.615Z,86.42
2019-01-08T12:18:57.223Z,84.97
2019-01-08T12:21:28.927Z,85.43
2019-01-08T12:24:00.392Z,85.21
2019-01-08T12:26:32.656Z,84.60
2019-01-08T12:29:04.594Z,84.81
2019-01-08T12:31:36.019Z,84.89
2019-01-08T12:34:07.542Z,84.04
2019-01-08T12:36:38.988Z,83.53
2019-01-08T12:39:10.684Z,83.27
2019-01-08T12:41:42.181Z,83.09
2019-01-08T12:44:13.633Z,82.88
2019-01-08T12:46:47.097Z,82.51
2019-01-08T12:49:18.532Z,81.40
2019-01-08T12:51:49.989Z,82.09
2019-01-08T12:54:21.463Z,80.84
2019-01-08T12:56:52.938Z,80.15
2019-01-08T12:59:24.325Z,80.09
2019-01-08T13:01:55.759Z,80.29
2019-01-08T13:04:27.365Z,81.21
2019-01-08T13:06:58.736Z,80.06
2019-01-08T13:09:31.249Z,80.40
2019-01-08T13:12:02.687Z,80.51
2019-01-08T13:14:34.160Z,80.72
2019-01-08T13:17:11.421Z,80.03
2019-01-08T13:19:38.831Z,80.17
2019-01-08T13:22:10.242Z,78.67
2019-01-08T13:24:41.630Z,78.40
2019-01-08T13:27:13.382Z,78.26
2019-01-08T13:29:44.911Z,78.02
2019-01-08T13:32:25.362Z,77.97
2019-01-08T13:34:58.917Z,77.56
2019-01-08T13:37:30.322Z,76.91
2019-01-08T13:40:01.827Z,77.58
2019-01-08T13:42:33.279Z,76.92
2019-01-08T13:45:04.928Z,77.00
2019-01-08T13:47:38.540Z,76.45
2019-01-08T13:50:11.427Z,76.84
2019-01-08T13:52:43.925Z,76.73
2019-01-08T13:55:15.517Z,76.97
2019-01-08T13:57:47.294Z,77.69
2019-01-08T14:00:18.840Z,77.96
2019-01-08T14:02:50.622Z,78.29
2019-01-08T14:05:22.076Z,78.41
2019-01-08T14:07:54.061Z,78.32
2019-01-08T14:10:25.584Z,78.28
2019-01-08T14:12:56.973Z,78.64
2019-01-08T14:15:28.439Z,79.22
2019-01-08T14:17:59.896Z,78.60
2019-01-08T14:20:31.359Z,78.76
2019-01-08T14:23:02.886Z,78.99
2019-01-08T14:25:34.582Z,79.08
2019-01-08T14:28:06.081Z,78.96
2019-01-08T14:30:37.547Z,78.98
2019-01-08T14:33:09.070Z,78.41
2019-01-08T14:35:40.759Z,78.85
2019-01-08T14:38:12.169Z,78.83
2019-01-08T14:40:43.603Z,79.08
2019-01-08T14:43:15.103Z,78.60
2019-01-08T14:45:46.559Z,78.48
2019-01-08T14:48:17.972Z,79.01
2019-01-08T14:50:50.134Z,78.85
2019-01-08T14:53:21.652Z,79.75
2019-01-08T14:55:53.249Z,79.82
2019-01-08T14:58:25.115Z,80.23
2019-01-08T15:00:56.611Z,79.96
2019-01-08T15:03:28.096Z,80.24
2019-01-08T15:05:59.549Z,80.71
2019-01-08T15:08:31.001Z,80.92
2019-01-08T15:11:02.494Z,80.85
2019-01-08T15:13:33.938Z,80.86
2019-01-08T15:16:05.395Z,80.51
2019-01-08T15:18:36.815Z,79.92
2019-01-08T15:21:08.272Z,80.29
2019-01-08T15:23:39.781Z,80.31
2019-01-08T15:26:11.222Z,80.41
2019-01-08T15:28:42.658Z,81.03
2019-01-08T15:31:14.123Z,80.32
2019-01-08T15:33:45.569Z,81.21
2019-01-08T15:36:17.025Z,81.36
2019-01-08T15:38:48.523Z,81.27
2019-01-08T15:41:20.255Z,81.51
2019-01-08T15:43:51.973Z,81.39
2019-01-08T15:46:23.422Z,82.26
2019-01-08T15:48:55.121Z,81.88
2019-01-08T15:51:26.515Z,82.38
2019-01-08T15:53:58.210Z,82.34
2019-01-08T15:56:30.644Z,81.90
2019-01-08T15:59:02.131Z,81.19
2019-01-08T16:01:33.617Z,80.82
2019-01-08T16:04:05.059Z,81.51
2019-01-08T16:06:36.527Z,81.66
2019-01-08T16:09:09.396Z,81.47
2019-01-08T16:11:40.896Z,81.70
2019-01-08T16:14:14.122Z,81.89
2019-01-08T16:16:45.561Z,81.51
2019-01-08T16:19:16.943Z,81.75
2019-01-08T16:21:48.688Z,81.78
2019-01-08T16:24:20.360Z,82.38
2019-01-08T16:26:51.902Z,81.75
2019-01-08T16:29:25.058Z,82.20
2019-01-08T16:31:56.554Z,81.33
2019-01-08T16:34:28.977Z,82.42
2019-01-08T16:37:01.862Z,81.71
2019-01-08T16:39:33.331Z,81.25
2019-01-08T16:42:04.762Z,81.61
2019-01-08T16:44:36.232Z,81.37
2019-01-08T16:47:08.246Z,80.41
2019-01-08T16:49:39.670Z,80.27
2019-01-08T16:52:11.373Z,80.34
2019-01-08T16:54:42.791Z,80.62
2019-01-08T16:57:17.173Z,80.49
2019-01-08T16:59:48.602Z,80.66
2019-01-08T17:02:20.140Z,80.63
2019-01-08T17:04:51.671Z,81.15
2019-01-08T17:07:23.209Z,81.65
2019-01-08T17:09:54.865Z,82.08
2019-01-08T17:12:26.583Z,81.82
2019-01-08T17:14:58.201Z,82.55
2019-01-08T17:17:29.963Z,82.90
2019-01-08T17:20:01.512Z,82.71
2019-01-08T17:22:33.775Z,82.31
2019-01-08T17:25:06.771Z,81.80
2019-01-08T17:27:38.605Z,82.08
2019-01-08T17:30:11.754Z,82.80
2019-01-08T17:32:43.262Z,84.32
2019-01-08T17:35:14.943Z,84.74
2019-01-08T17:37:47.380Z,84.71
2019-01-08T17:40:19.071Z,84.36
2019-01-08T17:42:50.572Z,84.41
2019-01-08T17:45:21.988Z,84.54
2019-01-08T17:47:53.509Z,85.01
2019-01-08T17:50:26.376Z,84.65
2019-01-08T17:52:58.957Z,85.12
2019-01-08T17:55:30.437Z,85.25
2019-01-08T17:58:40.063Z,85.59
2019-01-08T18:01:33.299Z,86.27
2019-01-08T18:04:04.735Z,86.85
2019-01-08T18:06:36.184Z,87.51
2019-01-08T18:09:08.314Z,88.13
2019-01-08T18:11:40.105Z,89.04
2019-01-08T18:14:11.589Z,88.59
2019-01-08T18:16:43.350Z,87.98
2019-01-08T18:19:14.828Z,88.20
2019-01-08T18:21:46.679Z,88.89
2019-01-08T18:24:18.301Z,88.21
2019-01-08T18:26:50.208Z,88.79
2019-01-08T18:29:21.724Z,88.55
2019-01-08T18:31:54.389Z,88.28
2019-01-08T18:34:25.932Z,88.66
2019-01-08T18:36:58.393Z,88.68
2019-01-08T18:39:30.705Z,89.69
2019-01-08T18:42:02.428Z,89.29
2019-01-08T18:44:34.648Z,88.30
2019-01-08T18:47:06.082Z,88.91
2019-01-08T18:49:37.541Z,89.55
2019-01-08T18:52:09.063Z,89.42
2019-01-08T18:54:40.557Z,89.07
2019-01-08T18:57:12.010Z,89.60
2019-01-08T18:59:43.788Z,89.65
2019-01-08T19:02:15.430Z,89.06
2019-01-08T19:04:46.880Z,89.24
2019-01-08T19:07:18.607Z,89.09
2019-01-08T19:09:59.638Z,88.95
2019-01-08T19:12:31.071Z,88.42
2019-01-08T19:15:02.567Z,88.62
2019-01-08T19:17:36.622Z,88.42
2019-01-08T19:20:08.113Z,87.96
2019-01-08T19:22:39.678Z,87.83
2019-01-08T19:25:11.582Z,86.94
2019-01-08T19:27:43.055Z,87.44
2019-01-08T19:30:14.915Z,86.80
2019-01-08T19:32:46.833Z,86.79
2019-01-08T19:35:18.919Z,86.47
2019-01-08T19:37:50.385Z,85.91
2019-01-08T19:40:22.135Z,86.41
2019-01-08T19:42:53.684Z,85.92
2019-01-08T19:45:25.519Z,86.15
2019-01-08T19:47:56.919Z,85.18
2019-01-08T19:50:28.777Z,85.25
2019-01-08T19:53:01.002Z,85.19
2019-01-08T19:55:32.514Z,85.23
2019-01-08T19:58:03.949Z,85.05
2019-01-08T20:00:35.499Z,85.24
2019-01-08T20:03:07.013Z,85.31
2019-01-08T20:05:38.421Z,85.34
2019-01-08T20:08:09.897Z,85.00
2019-01-08T20:10:41.941Z,84.53
2019-01-08T20:13:15.309Z,85.25
2019-01-08T20:15:46.804Z,84.83
2019-01-08T20:18:19.214Z,84.61
2019-01-08T20:20:50.666Z,84.61
2019-01-08T20:23:22.105Z,84.11
2019-01-08T20:25:53.686Z,84.08
2019-01-08T20:28:25.210Z,84.47
2019-01-08T20:30:56.684Z,84.33
2019-01-08T20:33:28.419Z,84.46
2019-01-08T20:35:59.965Z,84.84
2019-01-08T20:38:31.533Z,85.23
2019-01-08T20:41:03.337Z,85.56
2019-01-08T20:43:34.910Z,85.22
2019-01-08T20:46:06.700Z,84.97
2019-01-08T20:48:38.237Z,84.65
2019-01-08T20:51:09.895Z,85.13
2019-01-08T20:53:41.442Z,84.75
2019-01-08T20:56:12.981Z,85.01
2019-01-08T20:58:45.039Z,85.07
2019-01-08T21:01:16.514Z,85.90
2019-01-08T21:03:47.993Z,85.96
2019-01-08T21:06:19.668Z,86.13
2019-01-08T21:08:51.102Z,86.93
2019-01-08T21:11:22.586Z,88.12
2019-01-08T21:13:53.983Z,88.12
2019-01-08T21:16:26.223Z,88.05
2019-01-08T21:18:57.571Z,88.44
2019-01-08T21:21:28.993Z,87.67
2019-01-08T21:24:00.412Z,88.14
2019-01-08T21:26:32.187Z,87.97
2019-01-08T21:29:03.608Z,87.92
2019-01-08T21:31:35.253Z,88.26
2019-01-08T21:34:06.696Z,87.90
2019-01-08T21:36:38.177Z,87.69
2019-01-08T21:39:09.604Z,86.92
2019-01-08T21:41:42.719Z,86.52
2019-01-08T21:44:14.928Z,87.63
2019-01-08T21:46:46.352Z,87.16
2019-01-08T21:49:17.771Z,86.30
2019-01-08T21:51:49.165Z,86.72
2019-01-08T21:54:21.602Z,86.72
2019-01-08T21:56:53.139Z,86.12
2019-01-08T21:59:25.350Z,86.01
2019-01-08T22:01:56.796Z,86.48
2019-01-08T22:04:28.201Z,87.75
2019-01-08T22:06:59.631Z,89.10
2019-01-08T22:09:31.059Z,89.05
2019-01-08T22:12:03.949Z,88.66
2019-01-08T22:14:35.411Z,89.39
2019-01-08T22:17:07.542Z,90.29
2019-01-08T22:19:39.181Z,90.44
2019-01-08T22:22:10.860Z,89.87
2019-01-08T22:24:42.317Z,89.53
2019-01-08T22:27:14.722Z,88.99
2019-01-08T22:29:46.177Z,88.30
2019-01-08T22:32:17.612Z,87.85
2019-01-08T22:34:49.599Z,87.35
2019-01-08T22:37:22.870Z,87.20
2019-01-08T22:39:54.312Z,87.28
2019-01-08T22:42:25.890Z,87.08
2019-01-08T22:44:57.338Z,86.62
2019-01-08T22:47:29.040Z,86.73
2019-01-08T22:50:00.677Z,86.64
2019-01-08T22:52:34.898Z,86.63
2019-01-08T22:55:06.470Z,86.52
2019-01-08T22:57:38.147Z,86.17
2019-01-08T23:00:36.888Z,86.54
2019-01-08T23:03:10.761Z,86.39
2019-01-08T23:05:42.375Z,85.83
2019-01-08T23:08:13.879Z,85.43
2019-01-08T23:10:45.501Z,84.73
2019-01-08T23:13:17.418Z,84.35
2019-01-08T23:15:48.901Z,83.57
2019-01-08T23:18:20.607Z,84.19
2019-01-08T23:20:53.816Z,83.40
2019-01-08T23:23:25.175Z,83.00
2019-01-08T23:25:56.659Z,83.08
2019-01-08T23:28:28.150Z,82.80
2019-01-08T23:30:59.517Z,81.89
2019-01-08T23:33:31.036Z,82.62
2019-01-08T23:36:02.339Z,83.18
2019-01-08T23:38:33.782Z,83.59
2019-01-08T23:41:05.167Z,83.74
2019-01-08T23:43:36.612Z,85.06
2019-01-08T23:46:08.020Z,85.40
2019-01-08T23:48:39.379Z,85.87
2019-01-08T23:51:10.779Z,86.85
2019-01-08T23:53:46.158Z,86.89
2019-01-08T23:56:17.572Z,86.65
2019-01-08T23:58:49.007Z,87.01
